Terminal Aerodrome Forecast
Issued by NWS

Home | Current Version | Previous Version | Text Only | Print | Product List | Glossary On
Versions: 1 2 3 4 5 6 7 8 9 10 11 12 13
000
FTUS45 KBOI 271721
TAFMYL
TAF
KMYL 271721Z 2718/2818 VRB06KT P6SM OVC050
     FM271900 27013KT P6SM VCSH BKN030 OVC070
     FM280200 34004KT P6SM FEW040 BKN110=

USA.gov is the U.S. government's official web portal to all federal, state and local government web resources and services.